<?xml version="1.0" encoding="UTF-8" standalone="no" ?>
<gpx xmlns="http://www.topografix.com/GPX/1/1" xmlns:xsi="http://www.w3.org/2001/XMLSchema-instance" xsi:schemaLocation="http://www.topografix.com/GPX/1/1 http://www.topografix.com/GPX/1/1/gpx.xsd" version="1.1" creator="VisuGPX - https://www.visugpx.com">
  <metadata>
    <name>Vitrolles en Lub</name>
    <desc><![CDATA[Descente en single track technique, partie en dévers.]]></desc>
  </metadata>
  <trk>
    <name><![CDATA[Agasse Méritant La Grande Colle]]></name>
    <cmt><![CDATA[2011-02-06 09:28:12 +0000]]></cmt>
    <trkseg>
      <trkpt lat="43.82941" lon="5.57829">
        <ele>681</ele>
        <time>2011-02-06T09:28:12Z</time>
      </trkpt>
      <trkpt lat="43.82941" lon="5.57824">
        <ele>681</ele>
        <time>2011-02-06T09:28:53Z</time>
      </trkpt>
      <trkpt lat="43.82943" lon="5.57814">
        <ele>683</ele>
        <time>2011-02-06T09:29:53Z</time>
      </trkpt>
      <trkpt lat="43.82943" lon="5.57799">
        <ele>683</ele>
        <time>2011-02-06T09:29:59Z</time>
      </trkpt>
      <trkpt lat="43.82936" lon="5.57704">
        <ele>687</ele>
        <time>2011-02-06T09:30:30Z</time>
      </trkpt>
      <trkpt lat="43.82961" lon="5.57611">
        <ele>691</ele>
        <time>2011-02-06T09:31:01Z</time>
      </trkpt>
      <trkpt lat="43.82986" lon="5.57526">
        <ele>694</ele>
        <time>2011-02-06T09:31:31Z</time>
      </trkpt>
      <trkpt lat="43.83001" lon="5.57437">
        <ele>696</ele>
        <time>2011-02-06T09:32:01Z</time>
      </trkpt>
      <trkpt lat="43.82975" lon="5.57352">
        <ele>700</ele>
        <time>2011-02-06T09:32:34Z</time>
      </trkpt>
      <trkpt lat="43.82959" lon="5.57259">
        <ele>705</ele>
        <time>2011-02-06T09:33:07Z</time>
      </trkpt>
      <trkpt lat="43.82931" lon="5.57189">
        <ele>708</ele>
        <time>2011-02-06T09:33:37Z</time>
      </trkpt>
      <trkpt lat="43.82906" lon="5.57123">
        <ele>711</ele>
        <time>2011-02-06T09:34:07Z</time>
      </trkpt>
      <trkpt lat="43.82879" lon="5.57058">
        <ele>715</ele>
        <time>2011-02-06T09:34:38Z</time>
      </trkpt>
      <trkpt lat="43.82841" lon="5.56996">
        <ele>719</ele>
        <time>2011-02-06T09:35:10Z</time>
      </trkpt>
      <trkpt lat="43.82802" lon="5.56941">
        <ele>724</ele>
        <time>2011-02-06T09:35:43Z</time>
      </trkpt>
      <trkpt lat="43.82781" lon="5.56876">
        <ele>730</ele>
        <time>2011-02-06T09:36:16Z</time>
      </trkpt>
      <trkpt lat="43.82748" lon="5.56832">
        <ele>736</ele>
        <time>2011-02-06T09:36:46Z</time>
      </trkpt>
      <trkpt lat="43.82703" lon="5.56798">
        <ele>741</ele>
        <time>2011-02-06T09:37:17Z</time>
      </trkpt>
      <trkpt lat="43.82653" lon="5.56805">
        <ele>746</ele>
        <time>2011-02-06T09:37:49Z</time>
      </trkpt>
      <trkpt lat="43.82603" lon="5.56805">
        <ele>751</ele>
        <time>2011-02-06T09:38:21Z</time>
      </trkpt>
      <trkpt lat="43.82556" lon="5.56796">
        <ele>757</ele>
        <time>2011-02-06T09:38:53Z</time>
      </trkpt>
      <trkpt lat="43.82505" lon="5.56801">
        <ele>762</ele>
        <time>2011-02-06T09:39:25Z</time>
      </trkpt>
      <trkpt lat="43.82456" lon="5.56804">
        <ele>767</ele>
        <time>2011-02-06T09:39:55Z</time>
      </trkpt>
      <trkpt lat="43.82394" lon="5.56795">
        <ele>772</ele>
        <time>2011-02-06T09:40:28Z</time>
      </trkpt>
      <trkpt lat="43.82356" lon="5.56781">
        <ele>775</ele>
        <time>2011-02-06T09:40:51Z</time>
      </trkpt>
      <trkpt lat="43.8232" lon="5.56825">
        <ele>779</ele>
        <time>2011-02-06T09:41:21Z</time>
      </trkpt>
      <trkpt lat="43.8229" lon="5.56872">
        <ele>783</ele>
        <time>2011-02-06T09:41:51Z</time>
      </trkpt>
      <trkpt lat="43.82253" lon="5.56917">
        <ele>788</ele>
        <time>2011-02-06T09:42:21Z</time>
      </trkpt>
      <trkpt lat="43.82238" lon="5.56926">
        <ele>790</ele>
        <time>2011-02-06T09:42:31Z</time>
      </trkpt>
      <trkpt lat="43.82223" lon="5.56919">
        <ele>792</ele>
        <time>2011-02-06T09:42:40Z</time>
      </trkpt>
      <trkpt lat="43.82202" lon="5.56874">
        <ele>797</ele>
        <time>2011-02-06T09:43:15Z</time>
      </trkpt>
      <trkpt lat="43.82183" lon="5.56818">
        <ele>800</ele>
        <time>2011-02-06T09:43:48Z</time>
      </trkpt>
      <trkpt lat="43.82153" lon="5.56767">
        <ele>804</ele>
        <time>2011-02-06T09:44:19Z</time>
      </trkpt>
      <trkpt lat="43.8211" lon="5.56736">
        <ele>806</ele>
        <time>2011-02-06T09:44:49Z</time>
      </trkpt>
      <trkpt lat="43.82063" lon="5.56704">
        <ele>809</ele>
        <time>2011-02-06T09:45:21Z</time>
      </trkpt>
      <trkpt lat="43.82019" lon="5.56698">
        <ele>814</ele>
        <time>2011-02-06T09:45:52Z</time>
      </trkpt>
      <trkpt lat="43.81976" lon="5.56682">
        <ele>817</ele>
        <time>2011-02-06T09:46:15Z</time>
      </trkpt>
      <trkpt lat="43.81964" lon="5.56646">
        <ele>818</ele>
        <time>2011-02-06T09:46:25Z</time>
      </trkpt>
      <trkpt lat="43.81962" lon="5.5654">
        <ele>821</ele>
        <time>2011-02-06T09:46:57Z</time>
      </trkpt>
      <trkpt lat="43.81973" lon="5.56438">
        <ele>825</ele>
        <time>2011-02-06T09:47:28Z</time>
      </trkpt>
      <trkpt lat="43.82022" lon="5.56315">
        <ele>827</ele>
        <time>2011-02-06T09:47:59Z</time>
      </trkpt>
      <trkpt lat="43.8205" lon="5.56244">
        <ele>829</ele>
        <time>2011-02-06T09:48:16Z</time>
      </trkpt>
      <trkpt lat="43.82057" lon="5.56229">
        <ele>834</ele>
        <time>2011-02-06T09:48:19Z</time>
      </trkpt>
      <trkpt lat="43.82107" lon="5.56122">
        <ele>835</ele>
        <time>2011-02-06T09:48:50Z</time>
      </trkpt>
      <trkpt lat="43.82147" lon="5.56026">
        <ele>836</ele>
        <time>2011-02-06T09:49:22Z</time>
      </trkpt>
      <trkpt lat="43.82154" lon="5.55975">
        <ele>836</ele>
        <time>2011-02-06T09:49:39Z</time>
      </trkpt>
      <trkpt lat="43.82134" lon="5.55927">
        <ele>837</ele>
        <time>2011-02-06T09:49:58Z</time>
      </trkpt>
      <trkpt lat="43.82099" lon="5.55879">
        <ele>840</ele>
        <time>2011-02-06T09:50:28Z</time>
      </trkpt>
      <trkpt lat="43.8206" lon="5.5584">
        <ele>843</ele>
        <time>2011-02-06T09:50:59Z</time>
      </trkpt>
      <trkpt lat="43.82017" lon="5.55807">
        <ele>846</ele>
        <time>2011-02-06T09:51:30Z</time>
      </trkpt>
      <trkpt lat="43.81965" lon="5.55798">
        <ele>853</ele>
        <time>2011-02-06T09:52:04Z</time>
      </trkpt>
      <trkpt lat="43.81914" lon="5.55785">
        <ele>859</ele>
        <time>2011-02-06T09:52:36Z</time>
      </trkpt>
      <trkpt lat="43.81863" lon="5.55773">
        <ele>864</ele>
        <time>2011-02-06T09:53:08Z</time>
      </trkpt>
      <trkpt lat="43.81824" lon="5.55764">
        <ele>868</ele>
        <time>2011-02-06T09:53:32Z</time>
      </trkpt>
      <trkpt lat="43.8181" lon="5.55724">
        <ele>870</ele>
        <time>2011-02-06T09:53:52Z</time>
      </trkpt>
      <trkpt lat="43.81798" lon="5.55664">
        <ele>874</ele>
        <time>2011-02-06T09:54:23Z</time>
      </trkpt>
      <trkpt lat="43.81786" lon="5.55608">
        <ele>877</ele>
        <time>2011-02-06T09:54:53Z</time>
      </trkpt>
      <trkpt lat="43.81771" lon="5.55543">
        <ele>881</ele>
        <time>2011-02-06T09:55:27Z</time>
      </trkpt>
      <trkpt lat="43.81748" lon="5.55483">
        <ele>885</ele>
        <time>2011-02-06T09:56:00Z</time>
      </trkpt>
      <trkpt lat="43.81728" lon="5.55464">
        <ele>887</ele>
        <time>2011-02-06T09:56:14Z</time>
      </trkpt>
      <trkpt lat="43.81703" lon="5.55469">
        <ele>890</ele>
        <time>2011-02-06T09:56:31Z</time>
      </trkpt>
      <trkpt lat="43.81674" lon="5.55507">
        <ele>893</ele>
        <time>2011-02-06T09:57:03Z</time>
      </trkpt>
      <trkpt lat="43.81647" lon="5.55557">
        <ele>897</ele>
        <time>2011-02-06T09:57:38Z</time>
      </trkpt>
      <trkpt lat="43.81624" lon="5.55585">
        <ele>900</ele>
        <time>2011-02-06T09:57:59Z</time>
      </trkpt>
      <trkpt lat="43.81624" lon="5.55577">
        <ele>901</ele>
        <time>2011-02-06T09:58:24Z</time>
      </trkpt>
      <trkpt lat="43.8162" lon="5.55575">
        <ele>901</ele>
        <time>2011-02-06T09:58:38Z</time>
      </trkpt>
      <trkpt lat="43.81615" lon="5.5558">
        <ele>901</ele>
        <time>2011-02-06T09:58:41Z</time>
      </trkpt>
      <trkpt lat="43.81589" lon="5.55614">
        <ele>904</ele>
        <time>2011-02-06T09:59:24Z</time>
      </trkpt>
      <trkpt lat="43.81585" lon="5.55633">
        <ele>905</ele>
        <time>2011-02-06T09:59:29Z</time>
      </trkpt>
      <trkpt lat="43.81559" lon="5.55706">
        <ele>912</ele>
        <time>2011-02-06T09:59:41Z</time>
      </trkpt>
      <trkpt lat="43.81537" lon="5.55768">
        <ele>912</ele>
        <time>2011-02-06T09:59:53Z</time>
      </trkpt>
      <trkpt lat="43.81455" lon="5.55946">
        <ele>902</ele>
        <time>2011-02-06T10:00:17Z</time>
      </trkpt>
      <trkpt lat="43.81439" lon="5.55973">
        <ele>903</ele>
        <time>2011-02-06T10:00:21Z</time>
      </trkpt>
      <trkpt lat="43.81407" lon="5.56022">
        <ele>903</ele>
        <time>2011-02-06T10:00:35Z</time>
      </trkpt>
      <trkpt lat="43.81372" lon="5.56075">
        <ele>900</ele>
        <time>2011-02-06T10:00:47Z</time>
      </trkpt>
      <trkpt lat="43.81358" lon="5.56102">
        <ele>893</ele>
        <time>2011-02-06T10:00:53Z</time>
      </trkpt>
      <trkpt lat="43.81355" lon="5.56117">
        <ele>892</ele>
        <time>2011-02-06T10:00:56Z</time>
      </trkpt>
      <trkpt lat="43.81262" lon="5.56303">
        <ele>881</ele>
        <time>2011-02-06T10:01:26Z</time>
      </trkpt>
      <trkpt lat="43.81241" lon="5.56328">
        <ele>878</ele>
        <time>2011-02-06T10:01:31Z</time>
      </trkpt>
      <trkpt lat="43.81236" lon="5.56341">
        <ele>878</ele>
        <time>2011-02-06T10:01:34Z</time>
      </trkpt>
      <trkpt lat="43.8124" lon="5.56345">
        <ele>873</ele>
        <time>2011-02-06T10:02:16Z</time>
      </trkpt>
      <trkpt lat="43.81334" lon="5.56349">
        <ele>859</ele>
        <time>2011-02-06T10:02:39Z</time>
      </trkpt>
      <trkpt lat="43.81518" lon="5.56353">
        <ele>857</ele>
        <time>2011-02-06T10:03:09Z</time>
      </trkpt>
      <trkpt lat="43.81523" lon="5.56354">
        <ele>856</ele>
        <time>2011-02-06T10:03:10Z</time>
      </trkpt>
      <trkpt lat="43.81683" lon="5.56331">
        <ele>833</ele>
        <time>2011-02-06T10:03:41Z</time>
      </trkpt>
      <trkpt lat="43.81806" lon="5.56233">
        <ele>825</ele>
        <time>2011-02-06T10:04:15Z</time>
      </trkpt>
      <trkpt lat="43.81819" lon="5.56231">
        <ele>821</ele>
        <time>2011-02-06T10:04:54Z</time>
      </trkpt>
      <trkpt lat="43.81855" lon="5.56209">
        <ele>817</ele>
        <time>2011-02-06T10:05:13Z</time>
      </trkpt>
      <trkpt lat="43.8186" lon="5.56217">
        <ele>816</ele>
        <time>2011-02-06T10:05:18Z</time>
      </trkpt>
      <trkpt lat="43.81861" lon="5.56247">
        <ele>814</ele>
        <time>2011-02-06T10:05:35Z</time>
      </trkpt>
      <trkpt lat="43.81863" lon="5.56279">
        <ele>814</ele>
        <time>2011-02-06T10:05:51Z</time>
      </trkpt>
      <trkpt lat="43.81863" lon="5.56356">
        <ele>819</ele>
        <time>2011-02-06T10:06:23Z</time>
      </trkpt>
      <trkpt lat="43.81862" lon="5.56399">
        <ele>821</ele>
        <time>2011-02-06T10:06:46Z</time>
      </trkpt>
      <trkpt lat="43.81858" lon="5.56529">
        <ele>826</ele>
        <time>2011-02-06T10:07:17Z</time>
      </trkpt>
      <trkpt lat="43.81866" lon="5.56583">
        <ele>828</ele>
        <time>2011-02-06T10:07:34Z</time>
      </trkpt>
      <trkpt lat="43.81938" lon="5.5665">
        <ele>831</ele>
        <time>2011-02-06T10:08:06Z</time>
      </trkpt>
      <trkpt lat="43.81948" lon="5.56668">
        <ele>833</ele>
        <time>2011-02-06T10:08:10Z</time>
      </trkpt>
      <trkpt lat="43.81967" lon="5.56707">
        <ele>833</ele>
        <time>2011-02-06T10:08:22Z</time>
      </trkpt>
      <trkpt lat="43.81965" lon="5.5675">
        <ele>833</ele>
        <time>2011-02-06T10:08:32Z</time>
      </trkpt>
      <trkpt lat="43.81919" lon="5.56851">
        <ele>830</ele>
        <time>2011-02-06T10:09:07Z</time>
      </trkpt>
      <trkpt lat="43.81895" lon="5.56941">
        <ele>829</ele>
        <time>2011-02-06T10:09:38Z</time>
      </trkpt>
      <trkpt lat="43.81896" lon="5.56939">
        <ele>829</ele>
        <time>2011-02-06T10:12:57Z</time>
      </trkpt>
      <trkpt lat="43.81894" lon="5.56938">
        <ele>828</ele>
        <time>2011-02-06T10:13:08Z</time>
      </trkpt>
      <trkpt lat="43.81896" lon="5.56943">
        <ele>828</ele>
        <time>2011-02-06T10:14:35Z</time>
      </trkpt>
      <trkpt lat="43.81896" lon="5.56944">
        <ele>829</ele>
        <time>2011-02-06T10:15:47Z</time>
      </trkpt>
      <trkpt lat="43.81895" lon="5.56939">
        <ele>829</ele>
        <time>2011-02-06T10:17:51Z</time>
      </trkpt>
      <trkpt lat="43.81896" lon="5.56944">
        <ele>830</ele>
        <time>2011-02-06T10:19:17Z</time>
      </trkpt>
      <trkpt lat="43.81897" lon="5.56941">
        <ele>829</ele>
        <time>2011-02-06T10:21:10Z</time>
      </trkpt>
      <trkpt lat="43.81905" lon="5.56934">
        <ele>829</ele>
        <time>2011-02-06T10:21:46Z</time>
      </trkpt>
      <trkpt lat="43.81901" lon="5.56938">
        <ele>829</ele>
        <time>2011-02-06T10:21:58Z</time>
      </trkpt>
      <trkpt lat="43.81905" lon="5.56941">
        <ele>827</ele>
        <time>2011-02-06T10:22:31Z</time>
      </trkpt>
      <trkpt lat="43.81908" lon="5.56937">
        <ele>827</ele>
        <time>2011-02-06T10:22:36Z</time>
      </trkpt>
      <trkpt lat="43.81904" lon="5.56935">
        <ele>825</ele>
        <time>2011-02-06T10:23:13Z</time>
      </trkpt>
      <trkpt lat="43.81901" lon="5.56939">
        <ele>825</ele>
        <time>2011-02-06T10:23:14Z</time>
      </trkpt>
      <trkpt lat="43.81896" lon="5.56964">
        <ele>825</ele>
        <time>2011-02-06T10:23:32Z</time>
      </trkpt>
      <trkpt lat="43.81898" lon="5.5698">
        <ele>824</ele>
        <time>2011-02-06T10:23:37Z</time>
      </trkpt>
      <trkpt lat="43.81987" lon="5.57105">
        <ele>827</ele>
        <time>2011-02-06T10:24:09Z</time>
      </trkpt>
      <trkpt lat="43.82178" lon="5.57183">
        <ele>823</ele>
        <time>2011-02-06T10:24:40Z</time>
      </trkpt>
      <trkpt lat="43.82187" lon="5.57189">
        <ele>823</ele>
        <time>2011-02-06T10:24:45Z</time>
      </trkpt>
      <trkpt lat="43.82187" lon="5.57205">
        <ele>822</ele>
        <time>2011-02-06T10:24:51Z</time>
      </trkpt>
      <trkpt lat="43.82178" lon="5.57221">
        <ele>822</ele>
        <time>2011-02-06T10:24:58Z</time>
      </trkpt>
      <trkpt lat="43.82089" lon="5.57275">
        <ele>821</ele>
        <time>2011-02-06T10:25:25Z</time>
      </trkpt>
      <trkpt lat="43.82028" lon="5.57296">
        <ele>819</ele>
        <time>2011-02-06T10:25:49Z</time>
      </trkpt>
      <trkpt lat="43.82022" lon="5.57308">
        <ele>819</ele>
        <time>2011-02-06T10:25:53Z</time>
      </trkpt>
      <trkpt lat="43.81999" lon="5.57476">
        <ele>815</ele>
        <time>2011-02-06T10:26:24Z</time>
      </trkpt>
      <trkpt lat="43.8201" lon="5.5768">
        <ele>807</ele>
        <time>2011-02-06T10:26:55Z</time>
      </trkpt>
      <trkpt lat="43.81983" lon="5.57818">
        <ele>801</ele>
        <time>2011-02-06T10:27:27Z</time>
      </trkpt>
      <trkpt lat="43.81945" lon="5.57868">
        <ele>800</ele>
        <time>2011-02-06T10:27:56Z</time>
      </trkpt>
      <trkpt lat="43.819" lon="5.57887">
        <ele>802</ele>
        <time>2011-02-06T10:28:27Z</time>
      </trkpt>
      <trkpt lat="43.81853" lon="5.57918">
        <ele>806</ele>
        <time>2011-02-06T10:28:57Z</time>
      </trkpt>
      <trkpt lat="43.818" lon="5.57954">
        <ele>810</ele>
        <time>2011-02-06T10:29:31Z</time>
      </trkpt>
      <trkpt lat="43.81796" lon="5.57959">
        <ele>811</ele>
        <time>2011-02-06T10:29:49Z</time>
      </trkpt>
      <trkpt lat="43.81795" lon="5.57976">
        <ele>812</ele>
        <time>2011-02-06T10:29:59Z</time>
      </trkpt>
      <trkpt lat="43.81799" lon="5.58015">
        <ele>813</ele>
        <time>2011-02-06T10:30:10Z</time>
      </trkpt>
      <trkpt lat="43.81804" lon="5.58022">
        <ele>813</ele>
        <time>2011-02-06T10:30:13Z</time>
      </trkpt>
      <trkpt lat="43.81807" lon="5.5805">
        <ele>814</ele>
        <time>2011-02-06T10:30:22Z</time>
      </trkpt>
      <trkpt lat="43.81806" lon="5.58119">
        <ele>814</ele>
        <time>2011-02-06T10:30:51Z</time>
      </trkpt>
      <trkpt lat="43.81813" lon="5.58141">
        <ele>814</ele>
        <time>2011-02-06T10:30:58Z</time>
      </trkpt>
      <trkpt lat="43.81812" lon="5.58188">
        <ele>814</ele>
        <time>2011-02-06T10:31:20Z</time>
      </trkpt>
      <trkpt lat="43.81819" lon="5.5819">
        <ele>814</ele>
        <time>2011-02-06T10:31:23Z</time>
      </trkpt>
      <trkpt lat="43.81883" lon="5.58191">
        <ele>814</ele>
        <time>2011-02-06T10:32:04Z</time>
      </trkpt>
      <trkpt lat="43.81889" lon="5.5819">
        <ele>813</ele>
        <time>2011-02-06T10:32:09Z</time>
      </trkpt>
      <trkpt lat="43.81891" lon="5.58187">
        <ele>813</ele>
        <time>2011-02-06T10:32:16Z</time>
      </trkpt>
      <trkpt lat="43.81906" lon="5.58183">
        <ele>812</ele>
        <time>2011-02-06T10:32:29Z</time>
      </trkpt>
      <trkpt lat="43.81911" lon="5.58185">
        <ele>811</ele>
        <time>2011-02-06T10:32:33Z</time>
      </trkpt>
      <trkpt lat="43.81952" lon="5.58167">
        <ele>809</ele>
        <time>2011-02-06T10:32:52Z</time>
      </trkpt>
      <trkpt lat="43.81965" lon="5.58178">
        <ele>807</ele>
        <time>2011-02-06T10:32:58Z</time>
      </trkpt>
      <trkpt lat="43.81993" lon="5.5818">
        <ele>804</ele>
        <time>2011-02-06T10:33:15Z</time>
      </trkpt>
      <trkpt lat="43.82009" lon="5.5816">
        <ele>801</ele>
        <time>2011-02-06T10:33:30Z</time>
      </trkpt>
      <trkpt lat="43.82032" lon="5.58162">
        <ele>797</ele>
        <time>2011-02-06T10:33:44Z</time>
      </trkpt>
      <trkpt lat="43.82066" lon="5.58171">
        <ele>790</ele>
        <time>2011-02-06T10:34:02Z</time>
      </trkpt>
      <trkpt lat="43.82072" lon="5.58179">
        <ele>787</ele>
        <time>2011-02-06T10:34:11Z</time>
      </trkpt>
      <trkpt lat="43.821" lon="5.58245">
        <ele>772</ele>
        <time>2011-02-06T10:34:47Z</time>
      </trkpt>
      <trkpt lat="43.82113" lon="5.58283">
        <ele>761</ele>
        <time>2011-02-06T10:35:19Z</time>
      </trkpt>
      <trkpt lat="43.82126" lon="5.58321">
        <ele>752</ele>
        <time>2011-02-06T10:35:36Z</time>
      </trkpt>
      <trkpt lat="43.82135" lon="5.58327">
        <ele>749</ele>
        <time>2011-02-06T10:35:42Z</time>
      </trkpt>
      <trkpt lat="43.82222" lon="5.58331">
        <ele>731</ele>
        <time>2011-02-06T10:36:14Z</time>
      </trkpt>
      <trkpt lat="43.8227" lon="5.58358">
        <ele>722</ele>
        <time>2011-02-06T10:36:34Z</time>
      </trkpt>
      <trkpt lat="43.82275" lon="5.5837">
        <ele>721</ele>
        <time>2011-02-06T10:36:37Z</time>
      </trkpt>
      <trkpt lat="43.82283" lon="5.58368">
        <ele>719</ele>
        <time>2011-02-06T10:36:40Z</time>
      </trkpt>
      <trkpt lat="43.82287" lon="5.58361">
        <ele>718</ele>
        <time>2011-02-06T10:36:43Z</time>
      </trkpt>
      <trkpt lat="43.82294" lon="5.58327">
        <ele>706</ele>
        <time>2011-02-06T10:36:51Z</time>
      </trkpt>
      <trkpt lat="43.82296" lon="5.58306">
        <ele>705</ele>
        <time>2011-02-06T10:36:55Z</time>
      </trkpt>
      <trkpt lat="43.82301" lon="5.58298">
        <ele>704</ele>
        <time>2011-02-06T10:37:00Z</time>
      </trkpt>
      <trkpt lat="43.82307" lon="5.58306">
        <ele>703</ele>
        <time>2011-02-06T10:37:03Z</time>
      </trkpt>
      <trkpt lat="43.82337" lon="5.58366">
        <ele>693</ele>
        <time>2011-02-06T10:37:14Z</time>
      </trkpt>
      <trkpt lat="43.82344" lon="5.58378">
        <ele>693</ele>
        <time>2011-02-06T10:37:17Z</time>
      </trkpt>
      <trkpt lat="43.82378" lon="5.58561">
        <ele>684</ele>
        <time>2011-02-06T10:37:47Z</time>
      </trkpt>
      <trkpt lat="43.8238" lon="5.58563">
        <ele>683</ele>
        <time>2011-02-06T10:37:59Z</time>
      </trkpt>
      <trkpt lat="43.82384" lon="5.58557">
        <ele>679</ele>
        <time>2011-02-06T10:38:12Z</time>
      </trkpt>
      <trkpt lat="43.82398" lon="5.58549">
        <ele>675</ele>
        <time>2011-02-06T10:38:22Z</time>
      </trkpt>
      <trkpt lat="43.82436" lon="5.58537">
        <ele>666</ele>
        <time>2011-02-06T10:38:54Z</time>
      </trkpt>
      <trkpt lat="43.82467" lon="5.58501">
        <ele>661</ele>
        <time>2011-02-06T10:39:25Z</time>
      </trkpt>
      <trkpt lat="43.82475" lon="5.58491">
        <ele>660</ele>
        <time>2011-02-06T10:39:32Z</time>
      </trkpt>
      <trkpt lat="43.82487" lon="5.58487">
        <ele>658</ele>
        <time>2011-02-06T10:39:42Z</time>
      </trkpt>
      <trkpt lat="43.82499" lon="5.58461">
        <ele>656</ele>
        <time>2011-02-06T10:40:06Z</time>
      </trkpt>
      <trkpt lat="43.82508" lon="5.58453">
        <ele>655</ele>
        <time>2011-02-06T10:40:33Z</time>
      </trkpt>
      <trkpt lat="43.82513" lon="5.58453">
        <ele>655</ele>
        <time>2011-02-06T10:40:37Z</time>
      </trkpt>
      <trkpt lat="43.82526" lon="5.58442">
        <ele>655</ele>
        <time>2011-02-06T10:40:50Z</time>
      </trkpt>
      <trkpt lat="43.82545" lon="5.58403">
        <ele>655</ele>
        <time>2011-02-06T10:41:24Z</time>
      </trkpt>
      <trkpt lat="43.82568" lon="5.5837">
        <ele>658</ele>
        <time>2011-02-06T10:41:57Z</time>
      </trkpt>
      <trkpt lat="43.82591" lon="5.58339">
        <ele>661</ele>
        <time>2011-02-06T10:42:30Z</time>
      </trkpt>
      <trkpt lat="43.82607" lon="5.58315">
        <ele>666</ele>
        <time>2011-02-06T10:42:57Z</time>
      </trkpt>
      <trkpt lat="43.82617" lon="5.58313">
        <ele>666</ele>
        <time>2011-02-06T10:43:07Z</time>
      </trkpt>
      <trkpt lat="43.82623" lon="5.58304">
        <ele>667</ele>
        <time>2011-02-06T10:43:14Z</time>
      </trkpt>
      <trkpt lat="43.82627" lon="5.58284">
        <ele>668</ele>
        <time>2011-02-06T10:43:27Z</time>
      </trkpt>
      <trkpt lat="43.82662" lon="5.58232">
        <ele>668</ele>
        <time>2011-02-06T10:43:58Z</time>
      </trkpt>
      <trkpt lat="43.82694" lon="5.58192">
        <ele>669</ele>
        <time>2011-02-06T10:44:30Z</time>
      </trkpt>
      <trkpt lat="43.82725" lon="5.58153">
        <ele>669</ele>
        <time>2011-02-06T10:45:03Z</time>
      </trkpt>
      <trkpt lat="43.82751" lon="5.58121">
        <ele>667</ele>
        <time>2011-02-06T10:45:33Z</time>
      </trkpt>
      <trkpt lat="43.82772" lon="5.5809">
        <ele>667</ele>
        <time>2011-02-06T10:46:04Z</time>
      </trkpt>
      <trkpt lat="43.82793" lon="5.58067">
        <ele>669</ele>
        <time>2011-02-06T10:46:35Z</time>
      </trkpt>
      <trkpt lat="43.82835" lon="5.58005">
        <ele>672</ele>
        <time>2011-02-06T10:47:06Z</time>
      </trkpt>
      <trkpt lat="43.8289" lon="5.57892">
        <ele>676</ele>
        <time>2011-02-06T10:47:38Z</time>
      </trkpt>
      <trkpt lat="43.82945" lon="5.57827">
        <ele>677</ele>
        <time>2011-02-06T10:48:04Z</time>
      </trkpt>
      <trkpt lat="43.82943" lon="5.57821">
        <ele>678</ele>
        <time>2011-02-06T10:48:11Z</time>
      </trkpt>
      <trkpt lat="43.8294" lon="5.57829">
        <ele>679</ele>
        <time>2011-02-06T10:48:25Z</time>
      </trkpt>
    </trkseg>
  </trk>
</gpx>